sensor_id;sensor_type;location;lat;lon;timestamp;pressure;altitude;pressure_sealevel;temperature;humidity
67980;BME280;54760;47.490;19.030;2023-03-14T00:00:10;99335.53;;;10.20;45.18
67980;BME280;54760;47.490;19.030;2023-03-14T00:02:37;99334.59;;;10.10;45.35
67980;BME280;54760;47.490;19.030;2023-03-14T00:05:03;99337.87;;;10.05;45.55
67980;BME280;54760;47.490;19.030;2023-03-14T00:07:35;99332.06;;;10.03;45.58
67980;BME280;54760;47.490;19.030;2023-03-14T00:10:07;99327.84;;;9.86;46.39
67980;BME280;54760;47.490;19.030;2023-03-14T00:12:32;99317.09;;;9.79;46.23
67980;BME280;54760;47.490;19.030;2023-03-14T00:14:58;99321.00;;;9.78;46.30
67980;BME280;54760;47.490;19.030;2023-03-14T00:17:26;99318.81;;;9.73;46.68
67980;BME280;54760;47.490;19.030;2023-03-14T00:19:51;99315.22;;;9.76;46.67
67980;BME280;54760;47.490;19.030;2023-03-14T00:22:19;99300.50;;;9.86;46.11
67980;BME280;54760;47.490;19.030;2023-03-14T00:24:44;99309.56;;;9.83;46.25
67980;BME280;54760;47.490;19.030;2023-03-14T00:27:10;99303.56;;;9.88;46.01
67980;BME280;54760;47.490;19.030;2023-03-14T00:29:35;99292.06;;;9.80;46.26
67980;BME280;54760;47.490;19.030;2023-03-14T00:32:00;99288.31;;;9.74;46.90
67980;BME280;54760;47.490;19.030;2023-03-14T00:34:30;99281.91;;;9.81;46.26
67980;BME280;54760;47.490;19.030;2023-03-14T00:36:56;99284.09;;;9.86;46.22
67980;BME280;54760;47.490;19.030;2023-03-14T00:39:21;99282.09;;;9.74;46.45
67980;BME280;54760;47.490;19.030;2023-03-14T00:41:47;99267.41;;;9.68;46.75
67980;BME280;54760;47.490;19.030;2023-03-14T00:44:13;99270.25;;;9.64;46.83
67980;BME280;54760;47.490;19.030;2023-03-14T00:46:38;99279.88;;;9.69;46.78
67980;BME280;54760;47.490;19.030;2023-03-14T00:49:04;99271.25;;;9.70;46.86
67980;BME280;54760;47.490;19.030;2023-03-14T00:51:29;99270.00;;;9.58;47.17
67980;BME280;54760;47.490;19.030;2023-03-14T00:53:54;99270.53;;;9.53;47.55
67980;BME280;54760;47.490;19.030;2023-03-14T00:56:20;99257.75;;;9.50;47.33
67980;BME280;54760;47.490;19.030;2023-03-14T00:58:45;99257.38;;;9.48;47.51
67980;BME280;54760;47.490;19.030;2023-03-14T01:01:14;99259.78;;;9.63;47.40
67980;BME280;54760;47.490;19.030;2023-03-14T01:03:40;99252.22;;;9.67;46.98
67980;BME280;54760;47.490;19.030;2023-03-14T01:06:11;99250.34;;;9.64;47.14
67980;BME280;54760;47.490;19.030;2023-03-14T01:08:37;99250.94;;;9.71;47.35
67980;BME280;54760;47.490;19.030;2023-03-14T01:11:12;99244.88;;;9.64;47.33
67980;BME280;54760;47.490;19.030;2023-03-14T01:13:38;99246.41;;;9.65;47.32
67980;BME280;54760;47.490;19.030;2023-03-14T01:16:05;99250.22;;;9.54;47.73
67980;BME280;54760;47.490;19.030;2023-03-14T01:18:32;99240.47;;;9.53;47.64
67980;BME280;54760;47.490;19.030;2023-03-14T01:20:58;99236.44;;;9.58;47.34
67980;BME280;54760;47.490;19.030;2023-03-14T01:23:23;99236.66;;;9.51;48.03
67980;BME280;54760;47.490;19.030;2023-03-14T01:25:49;99224.19;;;9.50;47.78
67980;BME280;54760;47.490;19.030;2023-03-14T01:28:14;99221.06;;;9.35;47.94
67980;BME280;54760;47.490;19.030;2023-03-14T01:30:41;99212.22;;;9.31;48.16
67980;BME280;54760;47.490;19.030;2023-03-14T01:33:06;99203.25;;;9.31;48.29
67980;BME280;54760;47.490;19.030;2023-03-14T01:35:32;99186.81;;;9.18;48.33
67980;BME280;54760;47.490;19.030;2023-03-14T01:37:57;99179.81;;;9.17;48.53
67980;BME280;54760;47.490;19.030;2023-03-14T01:40:22;99182.88;;;9.19;48.75
67980;BME280;54760;47.490;19.030;2023-03-14T01:43:04;99192.59;;;9.20;48.58
67980;BME280;54760;47.490;19.030;2023-03-14T01:48:28;99190.47;;;9.28;48.46
67980;BME280;54760;47.490;19.030;2023-03-14T01:50:57;99183.75;;;9.16;48.67
67980;BME280;54760;47.490;19.030;2023-03-14T01:53:24;99166.47;;;9.19;48.79
67980;BME280;54760;47.490;19.030;2023-03-14T01:55:52;99157.00;;;9.24;48.86
67980;BME280;54760;47.490;19.030;2023-03-14T01:58:22;99162.56;;;9.20;48.76
67980;BME280;54760;47.490;19.030;2023-03-14T02:00:50;99156.25;;;9.23;48.97
67980;BME280;54760;47.490;19.030;2023-03-14T02:03:16;99159.53;;;9.31;48.85
67980;BME280;54760;47.490;19.030;2023-03-14T02:05:44;99154.50;;;9.29;48.73
67980;BME280;54760;47.490;19.030;2023-03-14T02:08:15;99167.22;;;9.07;49.23
67980;BME280;54760;47.490;19.030;2023-03-14T02:10:44;99151.12;;;9.25;48.97
67980;BME280;54760;47.490;19.030;2023-03-14T02:13:10;99146.94;;;9.21;49.19
67980;BME280;54760;47.490;19.030;2023-03-14T02:15:38;99132.37;;;9.11;49.42
67980;BME280;54760;47.490;19.030;2023-03-14T02:18:04;99142.63;;;9.07;49.48
67980;BME280;54760;47.490;19.030;2023-03-14T02:20:35;99136.03;;;9.21;49.16
67980;BME280;54760;47.490;19.030;2023-03-14T02:23:03;99126.22;;;9.23;49.00
67980;BME280;54760;47.490;19.030;2023-03-14T02:25:40;99126.25;;;9.07;49.61
67980;BME280;54760;47.490;19.030;2023-03-14T02:28:09;99126.38;;;9.03;49.88
67980;BME280;54760;47.490;19.030;2023-03-14T02:30:34;99109.91;;;8.91;50.22
67980;BME280;54760;47.490;19.030;2023-03-14T02:33:09;99108.56;;;8.99;50.07
67980;BME280;54760;47.490;19.030;2023-03-14T02:35:41;99110.38;;;8.89;50.43
67980;BME280;54760;47.490;19.030;2023-03-14T02:38:34;99097.53;;;9.02;50.19
67980;BME280;54760;47.490;19.030;2023-03-14T02:41:02;99095.22;;;9.01;50.50
67980;BME280;54760;47.490;19.030;2023-03-14T02:43:28;99096.09;;;8.98;50.45
67980;BME280;54760;47.490;19.030;2023-03-14T02:45:53;99096.56;;;8.80;50.92
67980;BME280;54760;47.490;19.030;2023-03-14T02:48:26;99083.53;;;9.00;51.02
67980;BME280;54760;47.490;19.030;2023-03-14T02:50:56;99092.06;;;9.02;50.71
67980;BME280;54760;47.490;19.030;2023-03-14T02:53:26;99091.81;;;8.97;50.91
67980;BME280;54760;47.490;19.030;2023-03-14T02:55:52;99090.62;;;8.98;51.09
67980;BME280;54760;47.490;19.030;2023-03-14T02:58:18;99077.00;;;8.98;51.05
67980;BME280;54760;47.490;19.030;2023-03-14T03:00:44;99069.34;;;9.05;50.89
67980;BME280;54760;47.490;19.030;2023-03-14T03:03:09;99071.31;;;9.05;51.00
67980;BME280;54760;47.490;19.030;2023-03-14T03:05:35;99066.19;;;9.07;51.05
67980;BME280;54760;47.490;19.030;2023-03-14T03:08:01;99059.03;;;9.13;51.14
67980;BME280;54760;47.490;19.030;2023-03-14T03:10:27;99053.34;;;9.20;50.89
67980;BME280;54760;47.490;19.030;2023-03-14T03:12:53;99055.75;;;9.18;50.94
67980;BME280;54760;47.490;19.030;2023-03-14T03:15:18;99066.19;;;9.07;51.44
67980;BME280;54760;47.490;19.030;2023-03-14T03:17:43;99062.16;;;9.11;51.43
67980;BME280;54760;47.490;19.030;2023-03-14T03:20:09;99049.41;;;9.08;51.91
67980;BME280;54760;47.490;19.030;2023-03-14T03:22:36;99052.50;;;9.23;51.20
67980;BME280;54760;47.490;19.030;2023-03-14T03:25:03;99059.34;;;9.15;51.48
67980;BME280;54760;47.490;19.030;2023-03-14T03:27:31;99057.47;;;9.12;51.80
67980;BME280;54760;47.490;19.030;2023-03-14T03:29:57;99048.09;;;9.13;51.77
67980;BME280;54760;47.490;19.030;2023-03-14T03:32:22;99035.22;;;9.26;51.39
67980;BME280;54760;47.490;19.030;2023-03-14T03:34:48;99031.38;;;9.11;51.75
67980;BME280;54760;47.490;19.030;2023-03-14T03:37:13;99026.44;;;9.06;51.97
67980;BME280;54760;47.490;19.030;2023-03-14T03:39:39;99026.34;;;9.09;51.94
67980;BME280;54760;47.490;19.030;2023-03-14T03:42:04;99020.78;;;9.13;52.04
67980;BME280;54760;47.490;19.030;2023-03-14T03:44:30;99035.16;;;9.01;52.30
67980;BME280;54760;47.490;19.030;2023-03-14T03:46:55;99033.44;;;9.07;52.13
67980;BME280;54760;47.490;19.030;2023-03-14T03:49:20;99032.41;;;8.88;52.75
67980;BME280;54760;47.490;19.030;2023-03-14T03:51:46;99031.06;;;8.80;53.67
67980;BME280;54760;47.490;19.030;2023-03-14T03:54:11;99025.75;;;8.60;53.99
67980;BME280;54760;47.490;19.030;2023-03-14T03:56:37;99029.84;;;8.68;54.74
67980;BME280;54760;47.490;19.030;2023-03-14T03:59:02;99034.03;;;8.57;55.53
67980;BME280;54760;47.490;19.030;2023-03-14T04:01:27;99041.37;;;8.27;56.09
67980;BME280;54760;47.490;19.030;2023-03-14T04:03:53;99045.41;;;8.07;56.32
67980;BME280;54760;47.490;19.030;2023-03-14T04:06:18;99040.13;;;8.32;56.64
67980;BME280;54760;47.490;19.030;2023-03-14T04:08:44;99039.44;;;8.44;56.15
67980;BME280;54760;47.490;19.030;2023-03-14T04:11:10;99029.66;;;8.14;56.80
67980;BME280;54760;47.490;19.030;2023-03-14T04:13:35;99031.13;;;8.35;56.53
67980;BME280;54760;47.490;19.030;2023-03-14T04:16:01;99017.06;;;7.88;57.04
67980;BME280;54760;47.490;19.030;2023-03-14T04:18:26;99024.72;;;7.93;57.25
67980;BME280;54760;47.490;19.030;2023-03-14T04:20:56;98997.03;;;7.78;58.22
67980;BME280;54760;47.490;19.030;2023-03-14T04:23:23;99003.00;;;8.51;55.17
67980;BME280;54760;47.490;19.030;2023-03-14T04:25:50;99006.97;;;8.79;53.89
67980;BME280;54760;47.490;19.030;2023-03-14T04:28:16;99011.53;;;8.82;53.80
67980;BME280;54760;47.490;19.030;2023-03-14T04:30:41;99023.84;;;8.74;54.65
67980;BME280;54760;47.490;19.030;2023-03-14T04:33:06;99014.38;;;8.17;55.62
67980;BME280;54760;47.490;19.030;2023-03-14T04:35:33;99013.38;;;8.72;54.58
67980;BME280;54760;47.490;19.030;2023-03-14T04:37:58;99007.63;;;8.83;54.19
67980;BME280;54760;47.490;19.030;2023-03-14T04:40:24;99008.69;;;8.85;54.08
67980;BME280;54760;47.490;19.030;2023-03-14T04:42:50;99012.41;;;8.79;54.31
67980;BME280;54760;47.490;19.030;2023-03-14T04:45:15;99015.13;;;8.79;54.44
67980;BME280;54760;47.490;19.030;2023-03-14T04:47:41;99016.34;;;8.78;54.54
67980;BME280;54760;47.490;19.030;2023-03-14T04:50:08;99016.75;;;8.76;54.63
67980;BME280;54760;47.490;19.030;2023-03-14T04:52:33;99007.72;;;8.79;54.61
67980;BME280;54760;47.490;19.030;2023-03-14T04:54:59;99016.44;;;8.74;54.71
67980;BME280;54760;47.490;19.030;2023-03-14T04:57:24;99021.78;;;8.78;54.68
67980;BME280;54760;47.490;19.030;2023-03-14T04:59:49;99015.22;;;8.75;54.79
67980;BME280;54760;47.490;19.030;2023-03-14T05:02:15;99019.38;;;8.80;54.52
67980;BME280;54760;47.490;19.030;2023-03-14T05:04:40;99021.56;;;8.72;54.75
67980;BME280;54760;47.490;19.030;2023-03-14T05:07:05;99008.38;;;8.83;54.62
67980;BME280;54760;47.490;19.030;2023-03-14T05:09:31;99012.13;;;8.89;54.46
67980;BME280;54760;47.490;19.030;2023-03-14T05:11:56;99009.81;;;8.88;54.29
67980;BME280;54760;47.490;19.030;2023-03-14T05:14:22;99001.72;;;8.84;54.44
67980;BME280;54760;47.490;19.030;2023-03-14T05:16:47;98998.91;;;8.88;54.29
67980;BME280;54760;47.490;19.030;2023-03-14T05:19:12;99004.34;;;8.88;54.14
67980;BME280;54760;47.490;19.030;2023-03-14T05:21:38;98991.25;;;8.83;54.30
67980;BME280;54760;47.490;19.030;2023-03-14T05:24:03;98988.63;;;8.92;54.04
67980;BME280;54760;47.490;19.030;2023-03-14T05:26:29;98990.25;;;8.77;54.45
67980;BME280;54760;47.490;19.030;2023-03-14T05:28:54;98986.09;;;8.85;54.29
67980;BME280;54760;47.490;19.030;2023-03-14T05:31:20;98982.31;;;8.95;53.99
67980;BME280;54760;47.490;19.030;2023-03-14T05:33:45;98981.66;;;8.91;53.95
67980;BME280;54760;47.490;19.030;2023-03-14T05:36:11;98986.87;;;8.85;54.01
67980;BME280;54760;47.490;19.030;2023-03-14T05:38:36;98986.03;;;8.88;53.89
67980;BME280;54760;47.490;19.030;2023-03-14T05:41:02;98994.44;;;8.94;53.68
67980;BME280;54760;47.490;19.030;2023-03-14T05:43:27;98995.13;;;9.10;53.10
67980;BME280;54760;47.490;19.030;2023-03-14T05:45:53;98994.47;;;9.19;52.79
67980;BME280;54760;47.490;19.030;2023-03-14T05:48:18;98987.91;;;9.17;52.53
67980;BME280;54760;47.490;19.030;2023-03-14T05:50:44;98983.88;;;9.21;52.42
67980;BME280;54760;47.490;19.030;2023-03-14T05:53:09;98992.72;;;9.25;52.33
67980;BME280;54760;47.490;19.030;2023-03-14T05:55:34;98998.00;;;9.32;52.33
67980;BME280;54760;47.490;19.030;2023-03-14T05:58:00;98991.75;;;9.44;51.77
67980;BME280;54760;47.490;19.030;2023-03-14T06:00:25;98973.75;;;9.47;51.67
67980;BME280;54760;47.490;19.030;2023-03-14T06:02:51;98983.66;;;9.53;51.41
67980;BME280;54760;47.490;19.030;2023-03-14T06:05:16;98981.25;;;9.68;51.19
67980;BME280;54760;47.490;19.030;2023-03-14T06:07:42;98969.44;;;9.84;50.71
67980;BME280;54760;47.490;19.030;2023-03-14T06:10:07;98978.81;;;9.83;50.53
67980;BME280;54760;47.490;19.030;2023-03-14T06:12:33;98980.22;;;9.87;50.21
67980;BME280;54760;47.490;19.030;2023-03-14T06:14:58;98975.97;;;9.99;50.05
67980;BME280;54760;47.490;19.030;2023-03-14T06:17:24;98971.78;;;10.07;49.67
67980;BME280;54760;47.490;19.030;2023-03-14T06:19:49;98979.66;;;10.18;49.35
67980;BME280;54760;47.490;19.030;2023-03-14T06:22:14;98983.78;;;10.22;49.32
67980;BME280;54760;47.490;19.030;2023-03-14T06:24:40;98975.31;;;10.42;49.01
67980;BME280;54760;47.490;19.030;2023-03-14T06:27:05;98981.03;;;10.57;48.63
67980;BME280;54760;47.490;19.030;2023-03-14T06:29:31;98979.78;;;10.49;48.53
67980;BME280;54760;47.490;19.030;2023-03-14T06:31:56;98980.47;;;10.62;48.30
67980;BME280;54760;47.490;19.030;2023-03-14T06:34:22;98975.62;;;10.66;48.11
67980;BME280;54760;47.490;19.030;2023-03-14T06:36:47;98975.97;;;10.68;48.15
67980;BME280;54760;47.490;19.030;2023-03-14T06:39:13;98972.78;;;10.69;48.12
67980;BME280;54760;47.490;19.030;2023-03-14T06:41:38;98983.78;;;10.78;47.88
67980;BME280;54760;47.490;19.030;2023-03-14T06:44:04;98976.97;;;10.83;47.34
67980;BME280;54760;47.490;19.030;2023-03-14T06:46:30;98990.72;;;10.92;47.20
67980;BME280;54760;47.490;19.030;2023-03-14T06:48:55;98988.31;;;10.94;47.35
67980;BME280;54760;47.490;19.030;2023-03-14T06:51:21;98988.13;;;11.19;47.01
67980;BME280;54760;47.490;19.030;2023-03-14T06:53:46;98982.19;;;11.52;46.11
67980;BME280;54760;47.490;19.030;2023-03-14T06:56:12;98989.50;;;11.55;45.83
67980;BME280;54760;47.490;19.030;2023-03-14T06:58:37;98982.75;;;11.38;46.17
67980;BME280;54760;47.490;19.030;2023-03-14T07:01:03;98997.09;;;11.51;46.26
67980;BME280;54760;47.490;19.030;2023-03-14T07:03:28;98989.78;;;11.48;46.32
67980;BME280;54760;47.490;19.030;2023-03-14T07:05:54;98989.88;;;11.35;46.52
67980;BME280;54760;47.490;19.030;2023-03-14T07:08:20;98995.59;;;11.59;46.19
67980;BME280;54760;47.490;19.030;2023-03-14T07:10:45;98991.62;;;11.51;46.34
67980;BME280;54760;47.490;19.030;2023-03-14T07:13:11;98991.69;;;11.69;46.00
67980;BME280;54760;47.490;19.030;2023-03-14T07:15:36;98983.22;;;11.85;45.59
67980;BME280;54760;47.490;19.030;2023-03-14T07:18:02;98973.38;;;12.33;45.01
67980;BME280;54760;47.490;19.030;2023-03-14T07:20:27;98978.59;;;12.31;44.36
67980;BME280;54760;47.490;19.030;2023-03-14T07:22:53;98982.06;;;12.32;44.45
67980;BME280;54760;47.490;19.030;2023-03-14T07:25:19;98990.91;;;12.18;44.76
67980;BME280;54760;47.490;19.030;2023-03-14T07:27:45;98972.03;;;12.29;44.84
67980;BME280;54760;47.490;19.030;2023-03-14T07:30:12;98975.03;;;12.85;43.80
67980;BME280;54760;47.490;19.030;2023-03-14T07:32:38;98973.09;;;13.37;42.49
67980;BME280;54760;47.490;19.030;2023-03-14T07:35:03;98976.62;;;14.18;41.03
67980;BME280;54760;47.490;19.030;2023-03-14T07:37:29;98963.87;;;14.97;39.25
67980;BME280;54760;47.490;19.030;2023-03-14T07:39:55;98962.00;;;15.68;37.97
67980;BME280;54760;47.490;19.030;2023-03-14T07:42:20;98951.81;;;16.14;36.70
67980;BME280;54760;47.490;19.030;2023-03-14T07:44:45;98954.06;;;15.75;37.57
67980;BME280;54760;47.490;19.030;2023-03-14T07:47:11;98947.44;;;15.67;37.57
67980;BME280;54760;47.490;19.030;2023-03-14T07:49:37;98933.31;;;16.20;37.02
67980;BME280;54760;47.490;19.030;2023-03-14T07:52:02;98943.91;;;16.47;36.37
67980;BME280;54760;47.490;19.030;2023-03-14T07:54:27;98936.53;;;16.59;36.07
67980;BME280;54760;47.490;19.030;2023-03-14T07:56:53;98942.44;;;16.06;37.08
67980;BME280;54760;47.490;19.030;2023-03-14T07:59:19;98933.19;;;16.09;37.07
67980;BME280;54760;47.490;19.030;2023-03-14T08:01:44;98936.91;;;16.06;37.48
67980;BME280;54760;47.490;19.030;2023-03-14T08:04:10;98920.91;;;16.30;37.04
67980;BME280;54760;47.490;19.030;2023-03-14T08:06:36;98919.37;;;16.29;36.95
67980;BME280;54760;47.490;19.030;2023-03-14T08:09:03;98918.44;;;16.84;36.52
67980;BME280;54760;47.490;19.030;2023-03-14T08:11:28;98920.50;;;16.89;35.69
67980;BME280;54760;47.490;19.030;2023-03-14T08:13:53;98910.50;;;16.97;35.82
67980;BME280;54760;47.490;19.030;2023-03-14T08:16:19;98899.16;;;17.26;35.33
67980;BME280;54760;47.490;19.030;2023-03-14T08:18:45;98896.03;;;17.08;35.65
67980;BME280;54760;47.490;19.030;2023-03-14T08:21:11;98887.78;;;17.56;35.08
67980;BME280;54760;47.490;19.030;2023-03-14T08:23:37;98888.97;;;17.86;34.61
67980;BME280;54760;47.490;19.030;2023-03-14T08:26:02;98897.31;;;17.92;34.42
67980;BME280;54760;47.490;19.030;2023-03-14T08:28:28;98896.97;;;17.73;34.72
67980;BME280;54760;47.490;19.030;2023-03-14T08:30:57;98890.06;;;18.11;34.17
67980;BME280;54760;47.490;19.030;2023-03-14T08:33:23;98884.94;;;19.24;32.30
67980;BME280;54760;47.490;19.030;2023-03-14T08:35:52;98889.41;;;19.66;31.69
67980;BME280;54760;47.490;19.030;2023-03-14T08:38:17;98878.91;;;20.88;29.93
67980;BME280;54760;47.490;19.030;2023-03-14T08:40:43;98879.72;;;21.85;28.63
67980;BME280;54760;47.490;19.030;2023-03-14T08:43:08;98881.78;;;23.10;26.60
67980;BME280;54760;47.490;19.030;2023-03-14T08:45:33;98863.78;;;24.03;24.59
67980;BME280;54760;47.490;19.030;2023-03-14T08:47:59;98867.47;;;23.46;25.14
67980;BME280;54760;47.490;19.030;2023-03-14T08:50:24;98861.75;;;23.91;23.85
67980;BME280;54760;47.490;19.030;2023-03-14T08:52:50;98863.88;;;25.69;22.99
67980;BME280;54760;47.490;19.030;2023-03-14T08:55:15;98852.84;;;26.07;22.23
67980;BME280;54760;47.490;19.030;2023-03-14T08:57:41;98852.59;;;26.41;22.23
67980;BME280;54760;47.490;19.030;2023-03-14T09:00:07;98849.78;;;26.41;22.02
67980;BME280;54760;47.490;19.030;2023-03-14T09:02:39;98843.34;;;26.92;21.36
67980;BME280;54760;47.490;19.030;2023-03-14T09:05:05;98831.97;;;27.83;21.00
67980;BME280;54760;47.490;19.030;2023-03-14T09:07:30;98838.41;;;28.16;20.04
67980;BME280;54760;47.490;19.030;2023-03-14T09:09:56;98831.12;;;27.50;20.10
67980;BME280;54760;47.490;19.030;2023-03-14T09:12:21;98833.03;;;27.17;20.43
67980;BME280;54760;47.490;19.030;2023-03-14T09:14:47;98832.75;;;27.68;19.70
67980;BME280;54760;47.490;19.030;2023-03-14T09:17:12;98818.00;;;28.08;19.16
67980;BME280;54760;47.490;19.030;2023-03-14T09:19:38;98828.09;;;27.63;19.88
67980;BME280;54760;47.490;19.030;2023-03-14T09:22:03;98837.00;;;27.92;19.88
67980;BME280;54760;47.490;19.030;2023-03-14T09:24:29;98813.06;;;29.05;19.13
67980;BME280;54760;47.490;19.030;2023-03-14T09:26:55;98813.53;;;28.94;18.92
67980;BME280;54760;47.490;19.030;2023-03-14T09:29:21;98802.34;;;28.87;18.87
67980;BME280;54760;47.490;19.030;2023-03-14T09:31:47;98801.56;;;29.28;18.60
67980;BME280;54760;47.490;19.030;2023-03-14T09:34:12;98760.16;;;29.38;18.41
67980;BME280;54760;47.490;19.030;2023-03-14T09:36:38;98742.50;;;29.38;18.15
67980;BME280;54760;47.490;19.030;2023-03-14T09:39:05;98736.37;;;29.93;17.79
67980;BME280;54760;47.490;19.030;2023-03-14T09:41:35;98729.16;;;30.36;17.61
67980;BME280;54760;47.490;19.030;2023-03-14T09:44:13;98715.78;;;29.21;18.37
67980;BME280;54760;47.490;19.030;2023-03-14T09:46:41;98735.16;;;29.00;18.67
67980;BME280;54760;47.490;19.030;2023-03-14T09:49:21;98719.87;;;29.45;18.56
67980;BME280;54760;47.490;19.030;2023-03-14T09:51:50;98730.84;;;28.82;19.10
67980;BME280;54760;47.490;19.030;2023-03-14T09:54:34;98740.53;;;28.14;19.98
67980;BME280;54760;47.490;19.030;2023-03-14T09:57:00;98725.59;;;26.33;21.58
67980;BME280;54760;47.490;19.030;2023-03-14T09:59:28;98732.16;;;26.96;21.28
67980;BME280;54760;47.490;19.030;2023-03-14T10:01:57;98750.09;;;26.55;21.78
67980;BME280;54760;47.490;19.030;2023-03-14T10:04:23;98754.12;;;27.53;21.07
67980;BME280;54760;47.490;19.030;2023-03-14T10:06:49;98745.97;;;27.72;20.65
67980;BME280;54760;47.490;19.030;2023-03-14T10:09:24;98722.56;;;28.02;20.55
67980;BME280;54760;47.490;19.030;2023-03-14T10:11:57;98709.00;;;28.40;20.37
67980;BME280;54760;47.490;19.030;2023-03-14T10:14:37;98704.69;;;29.41;19.20
67980;BME280;54760;47.490;19.030;2023-03-14T10:17:11;98712.56;;;30.95;18.14
67980;BME280;54760;47.490;19.030;2023-03-14T10:19:37;98692.34;;;31.28;17.37
67980;BME280;54760;47.490;19.030;2023-03-14T10:22:15;98698.81;;;30.27;17.56
67980;BME280;54760;47.490;19.030;2023-03-14T10:24:46;98701.84;;;29.58;18.15
67980;BME280;54760;47.490;19.030;2023-03-14T10:27:20;98691.22;;;29.66;18.16
67980;BME280;54760;47.490;19.030;2023-03-14T10:29:57;98700.28;;;28.54;19.19
67980;BME280;54760;47.490;19.030;2023-03-14T10:37:32;98685.75;;;25.53;22.76
67980;BME280;54760;47.490;19.030;2023-03-14T10:40:00;98695.94;;;24.99;23.54
67980;BME280;54760;47.490;19.030;2023-03-14T10:42:34;98686.59;;;24.06;24.80
67980;BME280;54760;47.490;19.030;2023-03-14T10:45:05;98674.63;;;24.19;24.69
67980;BME280;54760;47.490;19.030;2023-03-14T10:47:34;98680.50;;;23.74;25.41
67980;BME280;54760;47.490;19.030;2023-03-14T10:50:29;98688.53;;;24.81;23.96
67980;BME280;54760;47.490;19.030;2023-03-14T10:52:56;98658.63;;;24.97;23.79
67980;BME280;54760;47.490;19.030;2023-03-14T10:55:23;98648.66;;;25.83;23.10
67980;BME280;54760;47.490;19.030;2023-03-14T10:57:49;98665.53;;;25.03;23.41
67980;BME280;54760;47.490;19.030;2023-03-14T11:00:20;98677.88;;;24.80;23.95
67980;BME280;54760;47.490;19.030;2023-03-14T11:03:09;98659.91;;;24.96;23.73
67980;BME280;54760;47.490;19.030;2023-03-14T11:05:51;98637.47;;;25.75;22.89
67980;BME280;54760;47.490;19.030;2023-03-14T11:10:48;98641.00;;;25.25;23.39
67980;BME280;54760;47.490;19.030;2023-03-14T11:19:17;98622.78;;;23.77;25.37
67980;BME280;54760;47.490;19.030;2023-03-14T11:24:32;98627.72;;;25.76;22.89
67980;BME280;54760;47.490;19.030;2023-03-14T11:27:41;98601.22;;;26.00;22.68
67980;BME280;54760;47.490;19.030;2023-03-14T11:30:35;98588.47;;;25.02;23.87
67980;BME280;54760;47.490;19.030;2023-03-14T11:33:17;98606.16;;;23.71;25.67
67980;BME280;54760;47.490;19.030;2023-03-14T11:36:08;98610.00;;;23.00;26.63
67980;BME280;54760;47.490;19.030;2023-03-14T11:38:36;98596.53;;;23.25;26.40
67980;BME280;54760;47.490;19.030;2023-03-14T11:41:04;98595.28;;;23.13;26.38
67980;BME280;54760;47.490;19.030;2023-03-14T11:43:38;98602.06;;;22.65;27.05
67980;BME280;54760;47.490;19.030;2023-03-14T11:46:13;98597.97;;;22.13;27.78
67980;BME280;54760;47.490;19.030;2023-03-14T11:48:56;98586.66;;;22.77;27.15
67980;BME280;54760;47.490;19.030;2023-03-14T11:51:27;98575.19;;;24.10;25.65
67980;BME280;54760;47.490;19.030;2023-03-14T11:53:59;98588.66;;;24.40;25.02
67980;BME280;54760;47.490;19.030;2023-03-14T11:57:15;98578.63;;;23.54;25.94
67980;BME280;54760;47.490;19.030;2023-03-14T12:02:01;98578.91;;;22.70;26.77
67980;BME280;54760;47.490;19.030;2023-03-14T12:07:17;98582.66;;;22.33;27.60
67980;BME280;54760;47.490;19.030;2023-03-14T12:09:45;98565.06;;;21.80;28.20
67980;BME280;54760;47.490;19.030;2023-03-14T12:12:16;98556.09;;;21.87;28.01
67980;BME280;54760;47.490;19.030;2023-03-14T12:14:58;98544.03;;;22.24;27.20
67980;BME280;54760;47.490;19.030;2023-03-14T12:17:27;98545.97;;;22.02;27.25
67980;BME280;54760;47.490;19.030;2023-03-14T12:20:06;98561.63;;;21.74;27.72
67980;BME280;54760;47.490;19.030;2023-03-14T12:22:46;98570.00;;;21.87;27.51
67980;BME280;54760;47.490;19.030;2023-03-14T12:25:30;98560.13;;;21.73;27.87
67980;BME280;54760;47.490;19.030;2023-03-14T12:30:37;98543.84;;;22.09;27.69
67980;BME280;54760;47.490;19.030;2023-03-14T12:35:39;98538.25;;;21.32;29.15
67980;BME280;54760;47.490;19.030;2023-03-14T12:38:32;98542.84;;;21.61;28.88
67980;BME280;54760;47.490;19.030;2023-03-14T12:43:39;98538.50;;;21.79;29.03
67980;BME280;54760;47.490;19.030;2023-03-14T12:48:47;98525.91;;;21.27;29.73
67980;BME280;54760;47.490;19.030;2023-03-14T12:51:15;98513.16;;;20.81;29.97
67980;BME280;54760;47.490;19.030;2023-03-14T12:53:55;98515.25;;;20.56;30.76
67980;BME280;54760;47.490;19.030;2023-03-14T13:01:46;98507.56;;;20.19;31.24
67980;BME280;54760;47.490;19.030;2023-03-14T13:04:12;98493.44;;;20.17;31.34
67980;BME280;54760;47.490;19.030;2023-03-14T13:06:58;98505.06;;;20.16;31.43
67980;BME280;54760;47.490;19.030;2023-03-14T13:12:10;98501.91;;;20.06;31.82
67980;BME280;54760;47.490;19.030;2023-03-14T13:14:41;98494.94;;;19.94;32.08
67980;BME280;54760;47.490;19.030;2023-03-14T13:17:26;98489.38;;;19.94;32.04
67980;BME280;54760;47.490;19.030;2023-03-14T13:20:02;98485.69;;;19.86;32.25
67980;BME280;54760;47.490;19.030;2023-03-14T13:22:32;98498.25;;;19.93;32.02
67980;BME280;54760;47.490;19.030;2023-03-14T13:25:04;98490.03;;;19.81;31.82
67980;BME280;54760;47.490;19.030;2023-03-14T13:27:32;98499.56;;;19.62;32.21
67980;BME280;54760;47.490;19.030;2023-03-14T13:30:05;98499.31;;;19.60;32.26
67980;BME280;54760;47.490;19.030;2023-03-14T13:32:31;98503.19;;;19.51;32.57
67980;BME280;54760;47.490;19.030;2023-03-14T13:34:57;98503.97;;;19.46;32.83
67980;BME280;54760;47.490;19.030;2023-03-14T13:37:25;98502.22;;;19.43;32.89
67980;BME280;54760;47.490;19.030;2023-03-14T13:39:52;98506.06;;;19.34;33.51
67980;BME280;54760;47.490;19.030;2023-03-14T13:42:18;98511.53;;;19.45;33.44